map of YOL home
YOL - Airport
Location
City:  Yola, Adamawa, Nigeria
Name:Yola Airport
ICAO:DNYO
IATA:YOL

Details
Type:Airport (Aerodrome, Airfield)
Use:Public/Civil
Latitude:915'27"N (9.257553)
Longitude:1225'50"E (12.430422)
Datum:WGS 1984
Elevation:599 ft (183 m)
Variation:0.43E (WMM2015 magnetic declination)
0.10 annual change
Runways:2
Longest:9840 × 148 ft (2999 × 45 m), paved

Time
Time Zone:UTC+1
Local Time:

Weather
TAF:DNYO 200950Z 2012/2118 29007KT CAVOK

Related Locations
Nearby:
Farthest:FTI: 12069 mi / 19423 km
Fitiuta Village, AS

Find:

   beyond  
but within

Other Information
Maps:
NOTAMs:
Links:
Sources:

  
  • flag of Nigeria
  

Sectional Chart

Flight Planning
at skyvector.com

Satellite Image

Google Maps Satellite view

 

Copyright © 2004-2018 Karl L. Swartz. All rights reserved.
The Great Circle Mapper name and logo are trademarks of the Great Circle Mapper.
All other trademarks mentioned herein belong to their respective owners.
Please see credits for attibutions and further copyright information.

  Follow gcmap on Facebook Follow gcmap on Twitter Follow gcmap on Google+ GCmap on LinkedIn

hCard Microformat

Geo Microformat